Time;durP1;ratioP1;P1;durP2;ratioP2;P2;SDS_P1;SDS_P2;PMS_P1;PMS_P2;Temp;Humidity;BMP_temperature;BMP_pressure;BME280_temperature;BME280_humidity;BME280_pressure;Samples;Min_cycle;Max_cycle;Signal;HPM_P1;HPM_P2
2023/05/20 00:01:25;;;;;;;15.73;8.23;;;;;;;18.88;53.76;100818.44;124287;1099;104255;-82
2023/05/20 00:03:54;;;;;;;15.87;8.27;;;;;;;18.89;53.50;100825.55;124074;1099;104277;-81
2023/05/20 00:06:22;;;;;;;14.83;7.57;;;;;;;18.90;53.00;100819.36;124284;1099;104380;-82
2023/05/20 00:08:51;;;;;;;17.90;7.97;;;;;;;18.91;54.02;100818.46;124156;1099;104268;-81
2023/05/20 00:11:20;;;;;;;15.87;8.27;;;;;;;18.90;53.79;100814.05;124265;1098;104166;-82
2023/05/20 00:13:49;;;;;;;16.90;8.30;;;;;;;18.90;54.04;100815.80;123805;1099;104265;-83
2023/05/20 00:16:17;;;;;;;16.10;7.83;;;;;;;18.87;53.89;100822.00;124203;1099;104219;-82
2023/05/20 00:18:46;;;;;;;15.30;7.80;;;;;;;18.86;53.81;100820.20;123795;1099;104350;-82
2023/05/20 00:21:14;;;;;;;16.70;7.97;;;;;;;18.87;54.04;100816.69;124195;1099;104237;-83
2023/05/20 00:23:43;;;;;;;15.73;7.70;;;;;;;18.88;54.17;100817.56;124137;1099;104217;-83
2023/05/20 00:26:11;;;;;;;14.40;7.65;;;;;;;18.87;54.08;100811.37;123899;1099;104156;-82
2023/05/20 00:28:40;;;;;;;15.97;8.23;;;;;;;18.86;54.40;100818.43;124035;1099;104287;-83
2023/05/20 00:31:09;;;;;;;15.43;7.63;;;;;;;18.85;53.96;100818.42;124049;1099;104421;-82
2023/05/20 00:33:37;;;;;;;16.00;8.00;;;;;;;18.83;54.95;100813.05;124090;1099;104296;-81
2023/05/20 00:36:07;;;;;;;15.50;7.30;;;;;;;18.84;54.64;100805.99;124189;1098;104248;-82
2023/05/20 00:38:36;;;;;;;14.77;7.27;;;;;;;18.84;54.51;100811.31;123910;1099;104322;-80
2023/05/20 00:41:04;;;;;;;17.37;7.93;;;;;;;18.84;54.71;100812.22;124216;1099;104161;-83
2023/05/20 00:43:33;;;;;;;15.17;7.43;;;;;;;18.84;55.18;100803.34;123949;1099;104367;-82
2023/05/20 00:46:02;;;;;;;16.90;8.50;;;;;;;18.83;54.76;100799.77;124312;1099;104236;-83
2023/05/20 00:48:39;;;;;;;17.27;7.70;;;;;;;18.82;54.66;100797.09;124170;1099;104267;-83
2023/05/20 00:51:08;;;;;;;15.63;7.57;;;;;;;18.81;55.48;100801.53;123913;1099;104328;-83
2023/05/20 00:53:38;;;;;;;16.00;7.63;;;;;;;18.79;55.05;100797.08;123949;1099;104322;-84
2023/05/20 00:56:08;;;;;;;15.63;7.73;;;;;;;18.78;54.98;100793.54;124356;1099;104245;-84
2023/05/20 00:58:37;;;;;;;16.70;7.73;;;;;;;18.78;55.63;100797.97;124204;1099;104353;-82
2023/05/20 01:01:06;;;;;;;15.70;7.43;;;;;;;18.77;55.25;100802.38;124125;1099;104239;-81
2023/05/20 01:03:35;;;;;;;14.50;7.37;;;;;;;18.78;55.42;100801.52;124152;1099;104181;-83
2023/05/20 01:06:04;;;;;;;16.97;7.53;;;;;;;18.79;55.28;100805.96;124075;1099;104268;-84
2023/05/20 01:08:34;;;;;;;18.03;7.50;;;;;;;18.79;55.03;100802.39;124233;1099;104443;-82
2023/05/20 01:11:08;;;;;;;18.20;7.57;;;;;;;18.80;55.18;100804.19;123859;1099;104373;-82
2023/05/20 01:13:44;;;;;;;16.13;7.83;;;;;;;18.77;55.44;100802.38;123768;1098;104325;-81
2023/05/20 01:16:16;;;;;;;16.37;7.73;;;;;;;18.77;55.64;100807.70;124179;1099;104268;-83
2023/05/20 01:18:47;;;;;;;14.30;7.83;;;;;;;18.76;55.33;100802.37;124078;1099;104165;-80
2023/05/20 01:21:18;;;;;;;14.13;7.53;;;;;;;18.75;55.99;100797.95;124152;1098;104373;-81
2023/05/20 01:23:47;;;;;;;16.10;7.70;;;;;;;18.74;55.96;100804.14;124121;1098;104214;-82
2023/05/20 01:26:16;;;;;;;16.57;7.70;;;;;;;18.73;55.46;100799.69;124088;1098;104309;-80
2023/05/20 01:28:44;;;;;;;16.83;7.50;;;;;;;18.74;56.15;100809.45;124352;1099;104229;-82
2023/05/20 01:31:19;;;;;;;17.90;7.67;;;;;;;18.71;55.86;100804.99;124345;1099;104335;-82
2023/05/20 01:33:53;;;;;;;14.83;7.30;;;;;;;18.69;56.11;100802.33;123699;1099;104363;-80
2023/05/20 01:36:22;;;;;;;14.47;7.33;;;;;;;18.71;56.15;100812.09;124153;1099;104236;-81
2023/05/20 01:38:52;;;;;;;15.30;7.47;;;;;;;18.68;56.19;100804.97;124239;1099;104268;-81
2023/05/20 01:41:23;;;;;;;12.13;6.90;;;;;;;18.66;55.74;100801.42;124120;1099;104220;-82
2023/05/20 01:43:54;;;;;;;16.47;7.17;;;;;;;18.63;56.08;100802.28;123868;1099;104322;-80
2023/05/20 01:46:23;;;;;;;17.47;7.70;;;;;;;18.62;56.64;100800.52;123745;1099;104549;-82
2023/05/20 01:48:51;;;;;;;15.20;7.40;;;;;;;18.59;56.04;100805.81;124274;1099;104217;-81
2023/05/20 01:51:20;;;;;;;16.90;7.47;;;;;;;18.57;56.52;100796.92;123921;1099;104319;-82
2023/05/20 01:53:48;;;;;;;15.53;7.87;;;;;;;18.56;56.73;100808.45;123923;1099;104322;-80
2023/05/20 01:56:17;;;;;;;14.80;7.33;;;;;;;18.55;56.70;100806.66;124114;1098;104261;-81
2023/05/20 01:58:45;;;;;;;15.43;7.63;;;;;;;18.55;56.85;100814.62;124329;1099;104191;-82
2023/05/20 02:01:14;;;;;;;13.77;7.27;;;;;;;18.56;56.79;100815.51;124160;1099;104344;-81
2023/05/20 02:03:44;;;;;;;14.00;7.10;;;;;;;18.54;56.95;100812.84;124156;1099;104242;-81
2023/05/20 02:06:13;;;;;;;16.83;7.70;;;;;;;18.51;56.92;100815.47;123836;1099;104358;-81
2023/05/20 02:08:41;;;;;;;17.30;7.43;;;;;;;18.48;56.94;100819.02;123864;1099;104323;-81
2023/05/20 02:11:10;;;;;;;17.17;7.87;;;;;;;18.45;57.42;100821.64;123851;1099;104325;-82
2023/05/20 02:13:39;;;;;;;14.47;7.83;;;;;;;18.42;57.21;100824.27;124086;1098;105207;-80
2023/05/20 02:16:08;;;;;;;14.03;8.10;;;;;;;18.39;57.36;100818.05;123882;1099;104310;-83
2023/05/20 02:18:37;;;;;;;14.37;7.60;;;;;;;18.36;57.53;100812.72;123974;1099;104175;-82
2023/05/20 02:21:06;;;;;;;15.03;7.70;;;;;;;18.32;57.54;100820.66;124124;1099;104310;-81
2023/05/20 02:23:35;;;;;;;16.87;7.70;;;;;;;18.30;57.74;100821.51;124056;1098;104430;-82
2023/05/20 02:26:03;;;;;;;14.83;7.50;;;;;;;18.28;57.62;100821.48;123826;1099;104242;-82
2023/05/20 02:28:32;;;;;;;18.40;8.23;;;;;;;18.26;57.84;100814.38;124176;1099;104275;-81
2023/05/20 02:31:00;;;;;;;18.00;8.20;;;;;;;18.25;58.02;100820.58;124259;1099;104270;-83
2023/05/20 02:33:32;;;;;;;13.83;7.20;;;;;;;18.22;58.17;100821.44;124192;1099;104306;-82
2023/05/20 02:36:01;;;;;;;15.33;8.13;;;;;;;18.21;58.04;100816.98;124163;1099;104271;-83
2023/05/20 02:38:31;;;;;;;15.33;7.40;;;;;;;18.20;58.59;100823.20;124040;1099;104280;-81
2023/05/20 02:40:59;;;;;;;17.13;8.20;;;;;;;18.20;58.28;100819.63;123824;1099;104268;-81
2023/05/20 02:43:28;;;;;;;16.33;7.70;;;;;;;18.20;58.82;100823.20;123815;1099;104335;-83
2023/05/20 02:45:56;;;;;;;15.70;7.60;;;;;;;18.22;58.66;100828.52;123773;1099;104344;-81
2023/05/20 02:48:25;;;;;;;15.40;7.90;;;;;;;18.23;58.77;100833.85;123856;1099;104270;-80
2023/05/20 02:50:55;;;;;;;14.20;7.43;;;;;;;18.24;58.66;100832.95;123831;1099;104309;-81
2023/05/20 02:53:23;;;;;;;14.83;8.27;;;;;;;18.27;59.17;100832.98;123814;1099;104354;-81
2023/05/20 02:55:52;;;;;;;17.57;8.20;;;;;;;18.29;58.67;100836.56;124235;1099;104277;-81
2023/05/20 02:58:25;;;;;;;15.67;8.17;;;;;;;18.32;59.00;100841.91;123982;1099;104358;-80
2023/05/20 03:00:53;;;;;;;15.72;7.50;;;;;;;18.33;58.97;100838.35;124009;1099;104296;-80
2023/05/20 03:03:23;;;;;;;14.73;8.03;;;;;;;18.35;59.25;100843.68;124166;1099;104302;-80
2023/05/20 03:05:51;;;;;;;16.20;7.40;;;;;;;18.35;58.57;100843.68;124344;1099;104268;-81
2023/05/20 03:08:22;;;;;;;18.83;8.23;;;;;;;18.36;58.97;100840.16;124401;1098;104239;-82
2023/05/20 03:10:50;;;;;;;15.40;8.03;;;;;;;18.39;58.95;100839.31;124145;1099;104328;-80
2023/05/20 03:13:19;;;;;;;16.90;7.40;;;;;;;18.38;58.97;100838.39;124023;1099;104348;-80
2023/05/20 03:15:47;;;;;;;17.03;7.87;;;;;;;18.39;59.17;100841.97;123942;1099;104348;-80
2023/05/20 03:18:16;;;;;;;17.95;7.80;;;;;;;18.40;59.07;100841.06;124042;1098;104264;-80
2023/05/20 03:20:46;;;;;;;16.70;7.90;;;;;;;18.42;59.02;100844.65;123966;1099;104287;-80
2023/05/20 03:23:15;;;;;;;17.13;8.47;;;;;;;18.44;59.40;100843.77;124123;1099;104314;-80
2023/05/20 03:25:43;;;;;;;15.30;8.10;;;;;;;18.46;59.35;100852.62;123859;1099;104353;-81
2023/05/20 03:28:12;;;;;;;16.30;8.17;;;;;;;18.48;59.51;100849.98;124058;1099;104239;-80
2023/05/20 03:30:40;;;;;;;17.40;8.50;;;;;;;18.50;59.14;100853.57;124029;1099;104341;-80
2023/05/20 03:33:09;;;;;;;15.93;8.23;;;;;;;18.52;59.13;100850.92;123834;1099;104302;-81
2023/05/20 03:35:38;;;;;;;17.33;7.67;;;;;;;18.50;59.46;100858.88;123993;1099;104421;-80
2023/05/20 03:38:06;;;;;;;16.73;8.30;;;;;;;18.47;59.79;100848.23;124096;1099;104309;-80
2023/05/20 03:40:36;;;;;;;14.77;7.93;;;;;;;18.48;59.61;100852.64;123962;1099;104319;-81
2023/05/20 03:43:04;;;;;;;15.10;7.47;;;;;;;18.46;59.65;100857.06;123981;1099;104679;-79
2023/05/20 03:45:33;;;;;;;17.60;8.50;;;;;;;18.45;59.89;100856.19;124015;1098;104236;-81
2023/05/20 03:48:06;;;;;;;16.37;7.87;;;;;;;18.46;59.99;100857.94;123851;1099;104361;-81
2023/05/20 03:50:36;;;;;;;16.83;8.87;;;;;;;18.47;60.09;100853.54;124063;1099;104326;-82
2023/05/20 03:53:04;;;;;;;17.10;8.77;;;;;;;18.48;60.04;100856.22;123751;1099;104360;-79
2023/05/20 03:55:39;;;;;;;17.83;7.90;;;;;;;18.50;60.05;100851.79;123819;1099;104344;-81
2023/05/20 03:58:08;;;;;;;19.07;8.13;;;;;;;18.51;60.03;100857.98;123801;1099;104268;-81
2023/05/20 04:00:36;;;;;;;16.53;8.03;;;;;;;18.53;60.70;100858.91;123754;1099;104336;-81
2023/05/20 04:03:05;;;;;;;18.73;7.80;;;;;;;18.54;60.45;100852.70;124150;1099;104440;-80
2023/05/20 04:05:35;;;;;;;16.60;7.93;;;;;;;18.59;60.44;100863.37;124065;1099;104345;-81
2023/05/20 04:08:05;;;;;;;19.50;8.53;;;;;;;18.65;60.61;100863.42;123753;1102;110783;-81
2023/05/20 04:10:33;;;;;;;17.00;8.23;;;;;;;18.71;60.64;100857.28;124088;1099;104239;-83
2023/05/20 04:13:02;;;;;;;15.55;7.65;;;;;;;18.78;60.40;100867.09;124134;1099;104246;-81
2023/05/20 04:15:31;;;;;;;16.85;7.75;;;;;;;18.87;60.86;100869.86;123881;1099;104303;-82
2023/05/20 04:18:00;;;;;;;18.13;8.17;;;;;;;18.95;60.90;100869.92;124166;1099;105443;-82
2023/05/20 04:20:29;;;;;;;17.10;8.10;;;;;;;19.02;60.73;100874.37;124098;1099;104306;-82
2023/05/20 04:22:58;;;;;;;17.10;8.40;;;;;;;19.12;60.54;100870.00;124144;1099;104283;-80
2023/05/20 04:25:27;;;;;;;20.35;8.40;;;;;;;19.19;60.61;100871.83;124180;1099;104338;-80
2023/05/20 04:27:56;;;;;;;16.20;8.15;;;;;;;19.26;61.03;100878.98;123785;1099;104350;-84
2023/05/20 04:30:25;;;;;;;16.23;7.87;;;;;;;19.34;60.70;100868.38;123812;1099;104296;-83
2023/05/20 04:32:54;;;;;;;14.75;8.00;;;;;;;19.42;60.68;100873.75;124088;1099;104322;-83
2023/05/20 04:35:24;;;;;;;20.83;8.40;;;;;;;19.47;60.91;100864.89;124273;1098;104271;-83
2023/05/20 04:37:54;;;;;;;16.83;8.10;;;;;;;19.54;60.66;100872.03;123807;1099;104377;-81
2023/05/20 04:40:23;;;;;;;16.43;8.23;;;;;;;19.62;61.45;100868.49;124269;1099;104223;-83
2023/05/20 04:42:51;;;;;;;17.83;8.33;;;;;;;19.72;60.26;100868.55;124068;1099;104321;-81
2023/05/20 04:45:22;;;;;;;16.37;8.40;;;;;;;19.82;60.84;100869.52;123803;1099;104303;-82
2023/05/20 04:47:52;;;;;;;20.93;8.73;;;;;;;19.92;60.99;100868.65;123839;1099;104304;-84
2023/05/20 04:50:21;;;;;;;17.53;8.03;;;;;;;20.02;61.15;100869.55;124166;1099;104312;-80
2023/05/20 04:52:50;;;;;;;17.23;7.77;;;;;;;20.10;60.35;100864.25;123852;1099;104409;-82
2023/05/20 04:55:20;;;;;;;15.77;8.10;;;;;;;20.16;60.16;100858.05;123942;1099;104296;-83
2023/05/20 04:57:49;;;;;;;19.53;8.67;;;;;;;20.23;60.83;100867.85;123891;1099;104430;-85
2023/05/20 05:00:17;;;;;;;18.30;8.83;;;;;;;20.33;61.09;100864.30;124211;1099;104383;-82
2023/05/20 05:02:46;;;;;;;19.03;8.27;;;;;;;20.46;60.18;100865.22;123968;1099;104463;-78
2023/05/20 05:05:15;;;;;;;21.37;8.70;;;;;;;20.57;60.83;100867.86;123908;1099;104367;-80
2023/05/20 05:07:44;;;;;;;22.83;8.47;;;;;;;20.64;60.05;100869.66;123981;1099;105527;-81
2023/05/20 05:10:14;;;;;;;23.10;8.67;;;;;;;20.71;60.36;100876.81;123817;1099;104360;-81
2023/05/20 05:12:43;;;;;;;16.57;7.97;;;;;;;20.77;60.03;100874.14;123846;1099;104468;-81
2023/05/20 05:15:12;;;;;;;15.93;8.17;;;;;;;20.86;59.74;100872.35;124097;1099;104284;-80
2023/05/20 05:17:40;;;;;;;17.97;7.90;;;;;;;21.01;60.34;100877.67;123917;1099;104309;-81
2023/05/20 05:20:10;;;;;;;16.33;8.07;;;;;;;21.14;59.62;100874.08;124029;1099;104339;-79
2023/05/20 05:22:40;;;;;;;18.80;8.10;;;;;;;21.28;59.66;100871.37;124237;1098;104332;-80
2023/05/20 05:25:11;;;;;;;17.67;8.30;;;;;;;21.39;59.91;100875.81;124265;1099;104341;-81
2023/05/20 05:27:40;;;;;;;17.13;8.43;;;;;;;21.48;58.94;100874.00;124588;1099;104248;-79
2023/05/20 05:30:10;;;;;;;17.43;8.10;;;;;;;21.59;59.12;100868.66;123901;1099;104415;-83
2023/05/20 05:32:38;;;;;;;16.87;8.67;;;;;;;21.72;59.15;100866.81;124266;1099;104277;-79
2023/05/20 05:35:10;;;;;;;15.43;8.07;;;;;;;21.82;59.09;100870.35;124169;1098;104271;-80
2023/05/20 05:37:39;;;;;;;18.40;8.27;;;;;;;21.86;58.46;100870.33;123853;1098;104214;-79
2023/05/20 05:40:09;;;;;;;19.73;8.53;;;;;;;21.85;58.12;100873.88;124042;1099;104252;-79
2023/05/20 05:42:38;;;;;;;18.53;8.27;;;;;;;21.88;57.51;100871.20;124166;1099;104351;-80
2023/05/20 05:45:09;;;;;;;18.57;7.63;;;;;;;21.90;57.97;100872.06;123786;1099;104306;-81
2023/05/20 05:47:38;;;;;;;15.13;8.33;;;;;;;21.93;57.91;100880.98;123809;1099;104402;-81
2023/05/20 05:50:08;;;;;;;13.80;7.67;;;;;;;21.90;57.72;100880.08;123944;1099;104434;-79
2023/05/20 05:52:37;;;;;;;18.30;8.20;;;;;;;21.85;57.85;100876.55;124040;1099;104310;-82
2023/05/20 05:55:09;;;;;;;18.67;8.67;;;;;;;21.87;57.75;100881.89;124004;1099;104556;-79
2023/05/20 05:57:38;;;;;;;17.67;8.27;;;;;;;21.80;56.96;100891.73;124021;1099;104332;-82
2023/05/20 06:00:10;;;;;;;18.67;8.17;;;;;;;21.77;57.49;100883.72;124170;1099;111572;-81
2023/05/20 06:02:48;;;;;;;19.93;8.73;;;;;;;21.79;57.48;100884.59;124031;1099;104348;-80
2023/05/20 06:05:24;;;;;;;18.63;8.30;;;;;;;21.84;57.31;100880.11;123865;1099;104262;-82
2023/05/20 06:07:55;;;;;;;16.07;8.40;;;;;;;21.85;57.42;100883.69;124173;1099;104398;-82
2023/05/20 06:10:23;;;;;;;18.83;8.43;;;;;;;21.85;57.05;100879.23;124083;1099;104284;-82
2023/05/20 06:12:52;;;;;;;16.10;8.30;;;;;;;21.86;56.69;100880.11;124074;1099;104233;-80
2023/05/20 06:15:21;;;;;;;16.80;8.37;;;;;;;21.83;56.63;100869.44;124183;1099;104246;-80
2023/05/20 06:17:49;;;;;;;18.17;8.17;;;;;;;21.81;56.79;100871.23;123985;1098;104341;-82
2023/05/20 06:20:18;;;;;;;19.27;8.60;;;;;;;21.88;56.28;100865.86;123898;1099;104341;-80
2023/05/20 06:22:52;;;;;;;16.90;8.23;;;;;;;22.01;56.16;100868.47;123799;1099;104364;-82
2023/05/20 06:25:22;;;;;;;17.43;8.47;;;;;;;22.10;55.95;100868.41;124198;1099;104338;-81
2023/05/20 06:27:51;;;;;;;17.70;8.90;;;;;;;22.22;55.99;100865.66;124160;1099;104273;-84
2023/05/20 06:30:24;;;;;;;16.60;8.70;;;;;;;22.34;55.83;100867.37;124006;1099;104242;-81
2023/05/20 06:32:52;;;;;;;15.37;8.13;;;;;;;22.48;56.04;100874.43;124016;1099;104207;-80
2023/05/20 06:35:21;;;;;;;17.97;8.00;;;;;;;22.60;56.02;100864.52;124115;1098;104162;-82
2023/05/20 06:37:49;;;;;;;20.50;8.70;;;;;;;22.69;55.51;100870.67;124140;1099;104258;-83
2023/05/20 06:40:18;;;;;;;16.53;8.30;;;;;;;22.75;55.10;100862.59;123847;1099;104254;-82
2023/05/20 06:42:47;;;;;;;17.87;7.97;;;;;;;22.82;54.84;100864.33;123788;1099;104249;-82
2023/05/20 06:45:16;;;;;;;16.00;8.50;;;;;;;22.93;54.87;100867.78;123824;1099;104425;-80
2023/05/20 06:47:53;;;;;;;19.93;8.67;;;;;;;23.04;54.41;100858.78;124190;1099;104329;-82
2023/05/20 06:50:22;;;;;;;17.70;8.15;;;;;;;23.17;54.15;100868.50;124079;1099;104246;-80
2023/05/20 06:52:51;;;;;;;17.23;8.40;;;;;;;23.26;54.17;100863.02;124067;1099;104284;-84
2023/05/20 06:55:20;;;;;;;16.73;8.20;;;;;;;23.37;53.85;100868.25;123856;1099;104280;-81
2023/05/20 06:57:48;;;;;;;15.93;7.97;;;;;;;23.40;52.89;100870.02;124222;1098;104249;-84
2023/05/20 07:00:19;;;;;;;16.27;7.70;;;;;;;23.35;53.09;100872.75;124180;1099;104242;-84
2023/05/20 07:02:48;;;;;;;17.73;8.10;;;;;;;23.42;52.86;100866.44;124241;1098;104299;-84
2023/05/20 07:05:17;;;;;;;15.90;8.07;;;;;;;23.49;52.46;100864.56;123815;1099;104249;-81
2023/05/20 07:07:47;;;;;;;17.33;8.33;;;;;;;23.63;52.25;100861.72;123709;1099;104221;-81
2023/05/20 07:10:16;;;;;;;15.53;8.30;;;;;;;23.74;52.40;100864.27;123798;1099;104398;-80
2023/05/20 07:12:45;;;;;;;17.37;8.37;;;;;;;23.84;52.23;100863.25;123949;1099;104165;-80
2023/05/20 07:15:13;;;;;;;14.37;7.93;;;;;;;23.98;52.16;100861.29;123842;1099;104301;-83
2023/05/20 07:17:42;;;;;;;14.50;8.00;;;;;;;24.15;51.80;100866.41;123894;1099;102709;-82
2023/05/20 07:20:11;;;;;;;16.93;8.30;;;;;;;24.26;51.19;100865.34;124048;1099;104278;-82
2023/05/20 07:22:40;;;;;;;17.60;9.17;;;;;;;24.46;50.75;100867.72;124044;1099;104408;-82
2023/05/20 07:25:13;;;;;;;17.77;8.10;;;;;;;24.63;50.65;100871.05;124319;1099;104271;-81
2023/05/20 07:27:42;;;;;;;17.55;8.00;;;;;;;24.76;50.34;100863.66;124192;1099;104217;-83
2023/05/20 07:30:11;;;;;;;15.57;7.97;;;;;;;24.91;50.11;100855.34;124092;1099;104187;-82
2023/05/20 07:32:41;;;;;;;14.30;7.20;;;;;;;25.07;49.51;100865.80;124198;1099;104283;-84
2023/05/20 07:35:10;;;;;;;17.30;8.17;;;;;;;25.21;48.64;100857.48;124045;1099;104418;-81
2023/05/20 07:37:39;;;;;;;15.47;7.63;;;;;;;25.38;49.04;100844.64;123873;1099;104280;-81
2023/05/20 07:40:10;;;;;;;14.53;8.03;;;;;;;25.59;48.61;100851.38;123880;1099;104254;-82
2023/05/20 07:42:40;;;;;;;17.50;7.50;;;;;;;25.71;48.27;100844.88;124168;1099;104194;-83
2023/05/20 07:45:10;;;;;;;18.50;7.77;;;;;;;25.75;48.24;100845.69;124182;1099;104262;-82
2023/05/20 07:47:39;;;;;;;16.93;8.33;;;;;;;25.87;47.96;100844.52;124130;1099;104322;-82
2023/05/20 07:50:08;;;;;;;15.25;8.00;;;;;;;26.09;47.36;100853.91;124128;1099;104242;-81
2023/05/20 07:52:38;;;;;;;17.70;8.55;;;;;;;26.26;46.53;100864.27;124307;1099;104396;-81
2023/05/20 07:55:08;;;;;;;15.63;8.07;;;;;;;26.27;47.45;100854.39;124244;1099;104193;-82
2023/05/20 07:57:37;;;;;;;16.87;8.57;;;;;;;26.35;46.84;100855.08;123889;1099;104226;-81
2023/05/20 08:00:10;;;;;;;19.73;8.20;;;;;;;26.46;46.29;100854.82;123752;1099;104310;-78
2023/05/20 08:02:45;;;;;;;15.87;7.60;;;;;;;26.64;46.17;100858.88;124099;1099;104217;-81
2023/05/20 08:05:16;;;;;;;15.45;7.65;;;;;;;26.80;45.46;100846.83;124060;1099;104307;-83
2023/05/20 08:07:44;;;;;;;16.67;8.03;;;;;;;26.86;45.25;100852.02;124214;1099;104236;-80
2023/05/20 08:10:14;;;;;;;14.73;7.50;;;;;;;26.87;45.26;100850.23;124204;1098;104732;-79
2023/05/20 08:12:43;;;;;;;15.40;7.70;;;;;;;27.01;44.74;100844.48;123835;1098;104411;-83
2023/05/20 08:15:13;;;;;;;18.63;7.90;;;;;;;27.17;44.93;100851.20;123889;1099;104226;-82
2023/05/20 08:17:41;;;;;;;17.05;7.55;;;;;;;27.32;43.83;100835.59;123926;1099;104326;-82
2023/05/20 08:20:13;;;;;;;13.93;7.30;;;;;;;27.42;44.38;100834.38;123802;1099;104270;-81
2023/05/20 08:22:41;;;;;;;17.27;8.13;;;;;;;27.48;43.42;100844.11;124025;1099;104261;-81
2023/05/20 08:25:10;;;;;;;18.57;8.50;;;;;;;27.50;42.56;100844.94;124058;1099;104335;-81
2023/05/20 08:27:39;;;;;;;17.10;8.40;;;;;;;27.38;43.39;100840.80;124253;1099;104207;-82
2023/05/20 08:30:10;;;;;;;15.10;7.63;;;;;;;27.29;43.07;100841.03;124256;1099;104613;-82
2023/05/20 08:32:39;;;;;;;12.73;7.03;;;;;;;27.08;42.59;100851.45;124377;1099;104265;-84
2023/05/20 08:35:09;;;;;;;14.30;6.87;;;;;;;26.98;42.66;100844.57;124354;1099;104217;-83
2023/05/20 08:37:38;;;;;;;16.80;7.87;;;;;;;26.96;42.64;100851.78;123881;1099;104402;-82
2023/05/20 08:40:09;;;;;;;16.50;7.33;;;;;;;26.94;42.73;100849.12;123856;1099;104272;-81
2023/05/20 08:42:42;;;;;;;15.23;7.63;;;;;;;26.94;42.21;100851.83;124041;1098;104326;-83
2023/05/20 08:45:14;;;;;;;14.30;7.50;;;;;;;26.96;41.93;100844.61;124102;1099;104731;-83
2023/05/20 08:47:43;;;;;;;12.40;7.43;;;;;;;26.95;42.10;100847.34;124079;1099;104357;-83
2023/05/20 08:50:13;;;;;;;16.67;8.07;;;;;;;26.93;41.47;100843.78;124198;1099;104350;-82
2023/05/20 08:52:45;;;;;;;15.55;7.80;;;;;;;26.86;41.63;100846.64;124251;1099;104717;-82
2023/05/20 08:55:21;;;;;;;14.83;7.60;;;;;;;26.84;41.19;100848.50;124108;1099;104360;-80
2023/05/20 08:57:50;;;;;;;17.07;7.73;;;;;;;26.72;41.24;100846.13;124465;1099;104194;-81
2023/05/20 09:00:22;;;;;;;17.07;7.53;;;;;;;26.64;41.52;100845.41;124169;1099;104175;-81
2023/05/20 09:02:50;;;;;;;15.60;7.87;;;;;;;26.60;41.14;100838.33;124291;1099;104323;-83
2023/05/20 09:05:20;;;;;;;14.63;7.30;;;;;;;26.61;40.82;100837.42;124731;1099;104242;-81
2023/05/20 09:07:49;;;;;;;14.23;7.37;;;;;;;26.62;40.33;100828.44;124533;1099;104248;-81
2023/05/20 09:10:18;;;;;;;16.07;6.93;;;;;;;26.65;39.25;100834.64;124256;1099;104271;-81
2023/05/20 09:12:46;;;;;;;14.60;7.10;;;;;;;26.69;39.34;100833.66;123885;1099;104284;-83
2023/05/20 09:15:15;;;;;;;12.90;7.67;;;;;;;26.76;39.25;100828.11;124276;1099;104386;-81
2023/05/20 09:17:43;;;;;;;14.67;7.07;;;;;;;26.98;39.41;100828.41;124292;1099;104277;-82
2023/05/20 09:20:13;;;;;;;14.97;7.03;;;;;;;27.24;39.22;100819.61;124047;1099;104290;-83
2023/05/20 09:22:42;;;;;;;13.55;7.00;;;;;;;27.39;38.55;100824.56;124125;1098;104274;-81
2023/05/20 09:25:12;;;;;;;13.53;7.30;;;;;;;27.50;38.60;100821.55;124246;1099;104325;-82
2023/05/20 09:27:41;;;;;;;13.53;7.30;;;;;;;27.56;37.92;100810.59;124088;1099;104434;-82
2023/05/20 09:30:11;;;;;;;15.40;7.40;;;;;;;27.62;37.97;100821.19;124231;1099;104236;-82
2023/05/20 09:32:40;;;;;;;16.43;7.40;;;;;;;27.59;36.55;100810.50;124063;1099;104264;-82
2023/05/20 09:35:13;;;;;;;14.40;6.93;;;;;;;27.69;36.59;100807.53;124242;1099;104179;-82
2023/05/20 09:37:46;;;;;;;17.20;7.43;;;;;;;27.64;36.80;100807.66;124311;1099;104325;-84
2023/05/20 09:40:16;;;;;;;17.40;7.35;;;;;;;27.77;36.26;100798.28;124396;1099;104316;-82
2023/05/20 09:42:54;;;;;;;13.20;6.53;;;;;;;28.04;36.79;100805.59;124478;1099;104325;-81
2023/05/20 09:45:23;;;;;;;14.80;7.50;;;;;;;28.13;36.29;100789.11;124317;1099;104281;-82
2023/05/20 09:47:53;;;;;;;15.40;7.20;;;;;;;28.18;36.69;100797.92;124642;1099;104223;-84
2023/05/20 09:50:23;;;;;;;15.43;7.23;;;;;;;28.17;36.51;100790.75;124969;1099;101978;-81
2023/05/20 09:52:53;;;;;;;13.27;7.10;;;;;;;28.08;36.08;100785.66;124958;1099;104219;-81
2023/05/20 09:55:23;;;;;;;11.63;6.50;;;;;;;28.00;36.27;100794.00;125178;1099;104242;-83
2023/05/20 09:57:54;;;;;;;13.00;7.00;;;;;;;27.91;36.29;100794.28;125277;1099;104338;-81
2023/05/20 10:00:22;;;;;;;12.45;6.70;;;;;;;27.71;35.10;100793.08;125619;1098;104264;-82
2023/05/20 10:02:52;;;;;;;13.07;7.17;;;;;;;27.56;35.21;100785.47;125656;1099;102951;-84
2023/05/20 10:05:23;;;;;;;15.77;7.47;;;;;;;27.52;35.68;100787.38;124954;1099;104145;-84
2023/05/20 10:08:23;;;;;;;13.80;7.30;;;;;;;27.55;35.71;100789.08;125595;1098;104175;-81
2023/05/20 10:10:59;;;;;;;13.50;6.90;;;;;;;27.55;35.52;100780.99;125183;1099;104387;-83
2023/05/20 10:13:45;;;;;;;18.30;7.63;;;;;;;27.50;35.22;100772.17;125834;1099;104169;-82
2023/05/20 10:16:33;;;;;;;16.10;7.40;;;;;;;27.38;35.11;100781.53;124808;1099;104258;-82
2023/05/20 10:19:11;;;;;;;14.30;7.40;;;;;;;27.37;35.54;100780.63;125484;1099;104306;-83
2023/05/20 10:21:40;;;;;;;18.43;7.63;;;;;;;27.37;35.35;100785.14;124767;1099;104322;-82
2023/05/20 10:24:09;;;;;;;16.07;7.13;;;;;;;27.31;35.65;100783.50;125721;1099;104184;-81
2023/05/20 10:26:40;;;;;;;17.20;7.80;;;;;;;27.20;35.63;100786.47;125458;1099;104197;-84
2023/05/20 10:29:19;;;;;;;13.40;7.17;;;;;;;27.14;35.58;100786.64;124399;1099;104252;-82
2023/05/20 10:31:50;;;;;;;15.43;7.67;;;;;;;27.03;35.68;100784.25;124239;1098;104385;-82
2023/05/20 10:34:20;;;;;;;13.07;7.17;;;;;;;26.99;35.71;100782.59;124219;1098;104328;-83
2023/05/20 10:36:58;;;;;;;19.15;7.60;;;;;;;26.99;35.85;100789.77;124342;1098;104239;-83
2023/05/20 10:39:28;;;;;;;14.53;7.10;;;;;;;27.01;35.64;100780.73;124101;1099;104329;-83
2023/05/20 10:42:07;;;;;;;13.20;7.40;;;;;;;27.09;36.16;100775.13;124370;1099;104392;-83
2023/05/20 10:44:45;;;;;;;14.97;7.20;;;;;;;27.16;36.02;100779.42;124308;1099;104232;-84
2023/05/20 10:47:14;;;;;;;15.53;8.17;;;;;;;27.23;35.70;100774.73;123909;1099;104268;-83
2023/05/20 10:49:45;;;;;;;14.00;7.70;;;;;;;27.33;36.22;100778.06;124072;1099;104347;-83
2023/05/20 10:52:16;;;;;;;15.80;8.13;;;;;;;27.48;36.05;100774.91;124192;1099;104350;-84
2023/05/20 10:54:45;;;;;;;14.67;7.93;;;;;;;27.68;36.17;100770.74;124560;1099;104383;-84
2023/05/20 10:57:14;;;;;;;17.63;8.13;;;;;;;27.83;36.31;100781.05;124499;1099;104370;-85
2023/05/20 10:59:42;;;;;;;14.53;7.40;;;;;;;27.99;35.85;100776.07;124436;1099;104347;-84
2023/05/20 11:02:12;;;;;;;12.70;7.20;;;;;;;28.29;35.85;100773.28;124156;1099;104310;-85
2023/05/20 11:04:43;;;;;;;15.27;7.23;;;;;;;28.63;35.37;100770.33;124155;1099;104258;-83
2023/05/20 11:07:12;;;;;;;15.43;6.93;;;;;;;28.86;35.06;100755.14;124187;1099;104297;-82
2023/05/20 11:09:49;;;;;;;15.00;7.20;;;;;;;28.71;34.38;100756.56;124448;1099;104319;-82
2023/05/20 11:12:18;;;;;;;14.40;7.27;;;;;;;28.57;34.43;100759.72;124440;1099;104600;-84
2023/05/20 11:14:48;;;;;;;14.25;7.30;;;;;;;28.44;34.32;100761.97;124319;1099;104293;-84